Time;durP1;ratioP1;P1;durP2;ratioP2;P2;SDS_P1;SDS_P2;PMS_P1;PMS_P2;Temp;Humidity;BMP_temperature;BMP_pressure;BME280_temperature;BME280_humidity;BME280_pressure;Samples;Min_cycle;Max_cycle;Signal;HPM_P1;HPM_P2
2022/07/02 00:00:03;;;;;;;4.78;2.42;;;25.40;74.90;;;;;;5021839;28;20049;-77
2022/07/02 00:02:41;;;;;;;12.13;2.38;;;25.30;74.70;;;;;;5027804;28;20042;-77
2022/07/02 00:05:13;;;;;;;4.22;2.22;;;25.10;74.90;;;;;;5022123;28;20053;-75
2022/07/02 00:07:40;;;;;;;8.77;2.97;;;25.10;75.30;;;;;;5024552;28;20061;-76
2022/07/02 00:10:08;;;;;;;4.50;2.17;;;25.10;75.20;;;;;;5023708;28;20046;-75
2022/07/02 00:12:35;;;;;;;3.22;2.20;;;25.10;75.30;;;;;;5026535;28;20049;-76
2022/07/02 00:15:03;;;;;;;5.82;2.10;;;25.20;75.00;;;;;;5018127;28;20069;-77
2022/07/02 00:17:31;;;;;;;3.10;2.10;;;25.20;74.80;;;;;;5026422;28;20489;-76
2022/07/02 00:20:01;;;;;;;4.75;2.28;;;25.10;75.20;;;;;;5021054;28;20045;-77
2022/07/02 00:22:28;;;;;;;4.40;2.03;;;25.10;75.30;;;;;;5023051;28;20124;-77
2022/07/02 00:24:55;;;;;;;5.07;2.13;;;25.20;74.90;;;;;;5021686;28;20527;-76
2022/07/02 00:27:23;;;;;;;3.53;1.90;;;25.00;75.60;;;;;;5022531;28;20036;-77
2022/07/02 00:30:00;;;;;;;4.53;2.42;;;24.90;75.90;;;;;;5026344;28;20053;-76
2022/07/02 00:32:31;;;;;;;4.93;2.30;;;24.80;76.50;;;;;;5019430;28;20577;-77
2022/07/02 00:35:02;;;;;;;5.55;2.35;;;24.60;77.20;;;;;;5023796;28;20042;-76
2022/07/02 00:37:32;;;;;;;5.63;2.30;;;24.60;77.30;;;;;;5024298;28;20045;-77
2022/07/02 00:39:59;;;;;;;8.30;1.88;;;24.60;77.70;;;;;;5024378;28;20147;-77
2022/07/02 00:42:26;;;;;;;3.08;1.77;;;24.50;78.20;;;;;;5024415;28;20049;-76
2022/07/02 00:44:55;;;;;;;5.60;2.17;;;24.50;78.80;;;;;;5025279;28;20065;-76
2022/07/02 00:47:24;;;;;;;4.57;2.30;;;24.60;78.50;;;;;;5024636;28;20041;-77
2022/07/02 00:49:51;;;;;;;4.93;2.40;;;24.60;78.60;;;;;;5023888;28;20898;-76
2022/07/02 00:52:18;;;;;;;4.80;2.38;;;24.60;78.90;;;;;;5018992;28;20053;-76
2022/07/02 00:54:45;;;;;;;3.55;2.15;;;24.60;79.10;;;;;;5019817;28;20063;-76
2022/07/02 00:57:12;;;;;;;2.88;2.20;;;24.40;80.00;;;;;;5020124;28;20057;-75
2022/07/02 00:59:41;;;;;;;6.45;2.22;;;24.30;81.10;;;;;;5022932;28;20053;-76
2022/07/02 01:02:08;;;;;;;3.08;2.30;;;24.30;81.60;;;;;;5021340;28;22522;-76
2022/07/02 01:04:36;;;;;;;4.75;2.60;;;24.30;82.00;;;;;;5022227;28;20047;-77
2022/07/02 01:07:11;;;;;;;4.25;2.75;;;24.30;82.20;;;;;;5034515;28;20120;-78
2022/07/02 01:12:42;;;;;;;4.80;1.98;;;24.30;82.70;;;;;;5013182;28;20053;-76
2022/07/02 01:15:10;;;;;;;3.88;2.13;;;24.20;82.70;;;;;;5003025;28;20070;-75
2022/07/02 01:17:37;;;;;;;4.05;1.80;;;24.30;82.50;;;;;;5022992;28;20045;-76
2022/07/02 01:20:04;;;;;;;3.05;1.75;;;24.20;82.60;;;;;;5020250;28;20955;-76
2022/07/02 01:22:32;;;;;;;3.22;1.98;;;24.30;82.10;;;;;;5022368;28;20041;-77
2022/07/02 01:24:59;;;;;;;5.72;2.90;;;24.50;82.00;;;;;;5019394;28;20099;-77
2022/07/02 01:27:27;;;;;;;4.88;1.60;;;24.50;81.10;;;;;;5020354;28;20038;-76
2022/07/02 01:29:54;;;;;;;4.72;2.00;;;24.30;81.50;;;;;;5016948;28;20535;-76
2022/07/02 01:32:21;;;;;;;2.50;1.30;;;24.40;80.60;;;;;;5022331;28;20037;-77
2022/07/02 01:34:53;;;;;;;3.03;1.60;;;24.20;80.20;;;;;;5021237;28;20168;-76
2022/07/02 01:37:21;;;;;;;3.03;1.80;;;24.30;79.90;;;;;;5021614;28;20100;-76
2022/07/02 01:39:49;;;;;;;4.32;1.40;;;24.30;79.40;;;;;;5021129;28;20065;-76
2022/07/02 01:42:16;;;;;;;2.80;1.10;;;24.20;79.50;;;;;;5022382;28;20047;-75
2022/07/02 01:44:45;;;;;;;3.90;1.15;;;24.00;80.00;;;;;;5037773;28;20099;-77
2022/07/02 01:47:13;;;;;;;8.35;1.80;;;24.00;80.30;;;;;;5037879;28;20125;-75
2022/07/02 01:49:41;;;;;;;2.45;1.60;;;23.80;80.60;;;;;;5023497;28;20126;-77
2022/07/02 01:52:08;;;;;;;2.28;1.50;;;23.70;81.00;;;;;;5018571;28;20046;-76
2022/07/02 01:54:36;;;;;;;3.13;1.40;;;23.60;81.40;;;;;;5036910;28;20041;-77
2022/07/02 01:57:05;;;;;;;3.55;1.30;;;23.70;80.60;;;;;;5023619;28;20091;-76
2022/07/02 01:59:33;;;;;;;3.58;1.50;;;23.80;80.50;;;;;;5022246;28;20050;-76
2022/07/02 02:02:01;;;;;;;3.17;1.25;;;23.70;80.50;;;;;;5016386;28;20505;-77
2022/07/02 02:04:28;;;;;;;3.08;1.10;;;23.70;80.60;;;;;;5023079;28;20056;-77
2022/07/02 02:06:56;;;;;;;4.50;1.30;;;23.50;81.70;;;;;;5024771;28;20037;-76
2022/07/02 02:09:23;;;;;;;4.15;1.33;;;23.20;83.20;;;;;;5022613;28;20065;-76
2022/07/02 02:11:50;;;;;;;3.45;1.10;;;23.10;84.40;;;;;;5006538;28;20049;-76
2022/07/02 02:14:17;;;;;;;5.10;1.40;;;23.00;85.90;;;;;;5021694;28;20046;-77
2022/07/02 02:16:44;;;;;;;3.92;1.10;;;23.00;86.00;;;;;;5019628;28;20038;-75
2022/07/02 02:19:11;;;;;;;4.03;1.25;;;23.00;86.20;;;;;;5021641;28;20034;-76
2022/07/02 02:21:38;;;;;;;3.45;1.23;;;23.00;86.20;;;;;;5021810;28;20053;-74
2022/07/02 02:24:06;;;;;;;2.22;1.10;;;22.90;86.50;;;;;;5021807;28;20056;-76
2022/07/02 02:26:33;;;;;;;1.85;1.02;;;22.80;86.80;;;;;;5019199;28;20033;-76
2022/07/02 02:29:00;;;;;;;3.03;1.30;;;23.00;86.70;;;;;;5022109;28;20124;-76
2022/07/02 02:31:27;;;;;;;2.15;0.70;;;23.00;86.70;;;;;;5021506;28;20041;-77
2022/07/02 02:33:54;;;;;;;1.70;0.85;;;22.80;86.70;;;;;;5023133;28;20508;-74
2022/07/02 02:36:22;;;;;;;1.35;0.70;;;22.80;87.10;;;;;;5026844;28;20047;-76
2022/07/02 02:38:49;;;;;;;4.40;0.65;;;22.50;88.20;;;;;;5039491;28;20085;-75
2022/07/02 02:41:16;;;;;;;2.95;0.70;;;22.60;87.80;;;;;;5026146;28;20538;-76
2022/07/02 02:43:44;;;;;;;3.25;0.70;;;22.50;88.10;;;;;;5020012;28;20061;-76
2022/07/02 02:46:11;;;;;;;2.67;0.50;;;22.50;88.10;;;;;;5003575;28;20910;-76
2022/07/02 02:48:38;;;;;;;1.27;0.50;;;22.50;88.20;;;;;;5003840;28;20045;-75
2022/07/02 02:51:07;;;;;;;2.25;0.40;;;22.30;89.00;;;;;;5019399;28;20042;-76
2022/07/02 02:53:35;;;;;;;2.50;0.60;;;22.40;88.60;;;;;;5018764;28;20048;-75
2022/07/02 02:56:03;;;;;;;0.88;0.50;;;22.50;88.30;;;;;;5008492;28;20056;-76
2022/07/02 02:58:30;;;;;;;3.90;0.38;;;22.50;87.20;;;;;;5018302;28;20055;-75
2022/07/02 03:00:57;;;;;;;1.20;0.60;;;22.50;87.60;;;;;;5024708;28;20496;-75
2022/07/02 03:03:26;;;;;;;1.85;0.45;;;22.50;87.40;;;;;;5022633;28;20513;-75
2022/07/02 03:05:54;;;;;;;1.25;0.40;;;22.20;87.50;;;;;;5004167;28;20041;-76
2022/07/02 03:08:21;;;;;;;2.80;0.40;;;22.10;89.10;;;;;;5017674;28;20523;-76
2022/07/02 03:10:48;;;;;;;1.75;0.50;;;22.10;88.80;;;;;;5033250;28;20045;-76
2022/07/02 03:13:16;;;;;;;1.85;0.47;;;21.90;89.70;;;;;;5021545;28;20041;-75
2022/07/02 03:15:43;;;;;;;2.22;0.52;;;21.90;90.00;;;;;;5021316;28;20049;-74
2022/07/02 03:18:10;;;;;;;1.75;0.57;;;22.10;89.10;;;;;;5004887;28;20057;-77
2022/07/02 03:20:37;;;;;;;2.28;0.43;;;22.20;88.80;;;;;;5019427;28;20497;-75
2022/07/02 03:23:04;;;;;;;0.50;0.40;;;22.10;88.90;;;;;;5018991;28;20209;-76
2022/07/02 03:25:31;;;;;;;1.50;0.32;;;21.80;89.30;;;;;;5019769;28;20037;-76
2022/07/02 03:27:58;;;;;;;1.20;0.50;;;21.80;89.30;;;;;;5002799;28;22530;-76
2022/07/02 03:30:25;;;;;;;1.88;0.40;;;22.00;88.10;;;;;;5019778;28;20042;-75
2022/07/02 03:32:53;;;;;;;1.30;0.32;;;21.70;89.60;;;;;;5020008;28;20099;-76
2022/07/02 03:35:20;;;;;;;2.15;0.43;;;21.70;90.00;;;;;;5019716;28;20051;-75
2022/07/02 03:37:47;;;;;;;1.40;0.43;;;21.50;90.10;;;;;;5019789;28;20041;-77
2022/07/02 03:40:14;;;;;;;2.38;0.52;;;21.50;90.40;;;;;;5020107;28;20068;-76
2022/07/02 03:42:41;;;;;;;1.02;0.40;;;21.50;90.70;;;;;;5023383;28;20056;-75
2022/07/02 03:45:09;;;;;;;2.45;0.40;;;21.60;90.50;;;;;;5037292;28;20077;-76
2022/07/02 03:47:36;;;;;;;5.07;0.40;;;21.50;90.80;;;;;;5044214;28;20051;-74
2022/07/02 03:50:03;;;;;;;1.40;0.57;;;21.50;90.80;;;;;;5026539;28;20487;-76
2022/07/02 03:52:30;;;;;;;4.15;1.17;;;21.60;91.00;;;;;;5023187;28;20412;-77
2022/07/02 03:54:57;;;;;;;2.05;0.70;;;21.50;91.20;;;;;;5025100;28;20400;-76
2022/07/02 03:57:25;;;;;;;1.98;0.60;;;21.40;91.30;;;;;;5022926;28;20137;-75
2022/07/02 03:59:52;;;;;;;2.92;0.80;;;21.30;91.60;;;;;;5022316;28;20045;-75
2022/07/02 04:02:19;;;;;;;2.47;0.50;;;21.20;92.40;;;;;;5024292;28;20045;-76
2022/07/02 04:04:46;;;;;;;2.58;0.80;;;21.30;92.20;;;;;;5023051;28;20046;-76
2022/07/02 04:07:13;;;;;;;2.20;0.65;;;21.40;92.10;;;;;;5016224;28;20040;-74
2022/07/02 04:09:40;;;;;;;1.77;0.60;;;21.40;92.10;;;;;;5019536;28;20053;-76
2022/07/02 04:12:08;;;;;;;2.63;0.60;;;21.40;92.30;;;;;;5024515;28;20033;-75
2022/07/02 04:14:35;;;;;;;1.17;0.50;;;21.50;92.10;;;;;;5023991;28;20498;-76
2022/07/02 04:17:03;;;;;;;2.10;0.50;;;21.70;91.50;;;;;;5019874;28;20313;-76
2022/07/02 04:19:30;;;;;;;2.83;0.73;;;21.80;91.30;;;;;;5036215;28;20037;-76
2022/07/02 04:21:59;;;;;;;1.35;0.60;;;21.60;91.30;;;;;;5038483;28;21046;-76
2022/07/02 04:24:26;;;;;;;2.03;0.82;;;21.80;91.40;;;;;;5006212;28;20412;-76
2022/07/02 04:26:53;;;;;;;7.63;0.70;;;21.90;91.20;;;;;;5040748;28;20053;-76
2022/07/02 04:29:20;;;;;;;1.35;0.68;;;21.80;90.90;;;;;;5040760;28;20404;-74
2022/07/02 04:31:47;;;;;;;1.50;0.73;;;21.60;91.70;;;;;;5022846;28;20030;-75
2022/07/02 04:34:14;;;;;;;1.05;0.50;;;21.90;91.40;;;;;;5023595;28;20046;-76
2022/07/02 04:36:42;;;;;;;1.65;0.60;;;22.10;90.50;;;;;;5026843;28;20053;-75
2022/07/02 04:39:09;;;;;;;1.67;0.70;;;22.00;90.50;;;;;;5023585;28;21060;-74
2022/07/02 04:41:36;;;;;;;1.88;0.73;;;21.90;90.90;;;;;;5023108;28;20044;-74
2022/07/02 04:44:03;;;;;;;1.38;0.63;;;22.00;90.60;;;;;;5025207;28;21022;-76
2022/07/02 04:46:30;;;;;;;1.83;0.50;;;22.10;90.40;;;;;;5025813;28;20128;-75
2022/07/02 04:48:57;;;;;;;2.50;0.75;;;22.30;90.10;;;;;;5021628;28;20392;-75
2022/07/02 04:51:24;;;;;;;0.93;0.65;;;22.40;89.60;;;;;;5002766;28;20050;-76
2022/07/02 04:53:56;;;;;;;1.08;0.50;;;22.50;88.70;;;;;;5024911;28;20076;-75
2022/07/02 04:56:24;;;;;;;1.30;0.60;;;22.40;89.30;;;;;;5021455;28;20085;-75
2022/07/02 04:58:52;;;;;;;2.00;0.60;;;22.70;87.70;;;;;;5034428;28;20051;-75
2022/07/02 05:01:19;;;;;;;1.30;0.68;;;23.00;87.10;;;;;;5022237;28;20178;-74
2022/07/02 05:03:46;;;;;;;1.05;0.60;;;23.10;86.00;;;;;;5007550;28;20128;-76
2022/07/02 05:06:13;;;;;;;1.58;0.65;;;23.40;84.80;;;;;;5014436;28;20045;-76
2022/07/02 05:08:40;;;;;;;4.68;0.80;;;23.40;83.80;;;;;;4989384;28;20065;-76
2022/07/02 05:11:07;;;;;;;2.15;0.47;;;23.40;83.60;;;;;;4987404;28;21286;-76
2022/07/02 05:13:34;;;;;;;1.75;0.90;;;23.50;83.40;;;;;;5021104;28;20887;-75
2022/07/02 05:16:02;;;;;;;2.63;0.75;;;23.20;84.40;;;;;;5013064;28;20045;-76
2022/07/02 05:18:29;;;;;;;1.83;0.70;;;23.00;85.10;;;;;;5009374;28;22393;-75
2022/07/02 05:20:56;;;;;;;1.92;1.05;;;23.50;84.00;;;;;;5013465;28;20527;-75
2022/07/02 05:23:23;;;;;;;1.70;1.00;;;23.10;84.30;;;;;;5008851;28;20405;-76
2022/07/02 05:25:50;;;;;;;2.00;0.95;;;23.10;84.20;;;;;;5019732;28;20982;-76
2022/07/02 05:28:17;;;;;;;1.58;0.85;;;23.10;84.40;;;;;;4980669;28;20183;-76
2022/07/02 05:30:44;;;;;;;2.70;0.80;;;23.20;84.90;;;;;;5000483;28;20060;-76
2022/07/02 05:33:11;;;;;;;3.05;1.10;;;23.40;83.60;;;;;;5024749;28;20045;-74
2022/07/02 05:35:38;;;;;;;2.17;1.00;;;23.70;83.00;;;;;;5001407;28;20057;-77
2022/07/02 05:38:05;;;;;;;1.80;0.70;;;23.60;83.10;;;;;;5012058;28;20962;-77
2022/07/02 05:40:33;;;;;;;3.25;1.02;;;24.00;81.30;;;;;;5012819;28;20049;-75
2022/07/02 05:43:00;;;;;;;1.17;0.70;;;23.60;80.70;;;;;;5008830;28;20045;-76
2022/07/02 05:45:29;;;;;;;1.88;0.90;;;23.60;81.90;;;;;;5013401;28;20072;-75
2022/07/02 05:47:56;;;;;;;1.65;0.90;;;23.40;81.90;;;;;;5007248;28;20048;-77
2022/07/02 05:50:23;;;;;;;1.50;1.10;;;23.50;81.50;;;;;;4989276;28;20060;-78
2022/07/02 05:52:50;;;;;;;2.10;0.90;;;23.90;81.50;;;;;;4984181;28;22373;-75
2022/07/02 05:55:17;;;;;;;2.38;1.48;;;24.30;79.80;;;;;;5008289;28;20046;-76
2022/07/02 05:57:44;;;;;;;1.83;0.98;;;24.30;78.50;;;;;;4997861;28;20065;-75
2022/07/02 06:00:13;;;;;;;3.45;1.00;;;24.60;78.10;;;;;;5007890;28;20452;-76
2022/07/02 06:02:40;;;;;;;4.30;1.20;;;24.60;78.10;;;;;;4992348;28;21045;-75
2022/07/02 06:07:54;;;;;;;4.13;1.10;;;24.90;77.00;;;;;;5005741;28;20884;-76
2022/07/02 06:10:21;;;;;;;4.32;0.73;;;24.90;76.20;;;;;;5009015;28;20060;-76
2022/07/02 06:12:50;;;;;;;4.03;0.73;;;25.00;76.20;;;;;;4985017;28;22450;-75
2022/07/02 06:15:18;;;;;;;2.72;1.00;;;25.20;75.90;;;;;;5007376;28;20104;-76
2022/07/02 06:17:45;;;;;;;1.58;1.05;;;25.30;75.50;;;;;;5007225;28;20073;-76
2022/07/02 06:20:14;;;;;;;2.88;1.02;;;25.40;74.70;;;;;;4987589;28;20061;-75
2022/07/02 06:22:49;;;;;;;2.83;0.95;;;25.50;75.00;;;;;;5008830;28;20056;-76
2022/07/02 06:25:16;;;;;;;4.35;1.10;;;25.60;74.30;;;;;;5004483;28;20053;-77
2022/07/02 06:27:43;;;;;;;3.45;0.90;;;25.70;74.40;;;;;;5010963;28;20041;-75
2022/07/02 06:30:11;;;;;;;3.60;1.25;;;25.70;73.60;;;;;;5010742;28;20050;-77
2022/07/02 06:32:38;;;;;;;3.03;0.93;;;25.80;73.40;;;;;;5005783;28;20040;-77
2022/07/02 06:35:06;;;;;;;1.98;0.88;;;25.90;72.60;;;;;;5003407;28;20128;-77
2022/07/02 06:37:33;;;;;;;1.92;0.80;;;25.80;73.50;;;;;;5002203;28;20053;-78
2022/07/02 06:40:00;;;;;;;2.08;1.10;;;25.90;73.30;;;;;;5027629;28;20512;-77
2022/07/02 06:42:29;;;;;;;2.25;1.50;;;26.00;72.70;;;;;;4997423;28;20112;-78
2022/07/02 06:44:59;;;;;;;1.92;1.25;;;26.00;72.20;;;;;;5011474;28;20116;-77
2022/07/02 06:47:28;;;;;;;2.90;0.90;;;25.90;72.30;;;;;;5014862;28;20053;-77
2022/07/02 06:49:56;;;;;;;1.83;0.88;;;26.20;72.00;;;;;;5029121;28;20127;-77
2022/07/02 06:52:24;;;;;;;1.88;1.05;;;26.50;71.40;;;;;;4999301;28;20058;-76
2022/07/02 06:54:52;;;;;;;1.50;0.90;;;26.50;71.30;;;;;;5012421;28;20078;-77
2022/07/02 06:57:19;;;;;;;2.35;1.00;;;26.40;71.20;;;;;;5011681;28;20501;-77
2022/07/02 06:59:52;;;;;;;2.28;1.05;;;26.50;71.60;;;;;;5029419;28;20064;-75
2022/07/02 07:02:20;;;;;;;2.17;1.08;;;26.70;71.20;;;;;;5013045;28;20057;-78
2022/07/02 07:04:48;;;;;;;1.42;0.90;;;26.70;70.80;;;;;;5015034;28;20060;-77
2022/07/02 07:07:17;;;;;;;1.70;1.10;;;26.60;69.80;;;;;;5015736;28;20490;-76
2022/07/02 07:09:44;;;;;;;2.53;0.88;;;26.60;70.50;;;;;;4992091;28;22520;-77
2022/07/02 07:12:11;;;;;;;2.80;0.95;;;26.60;69.60;;;;;;5013507;28;20049;-77
2022/07/02 07:14:38;;;;;;;1.67;1.20;;;26.80;69.70;;;;;;5015275;28;20049;-77
2022/07/02 07:17:06;;;;;;;1.67;1.10;;;26.70;69.70;;;;;;5000421;28;22974;-77
2022/07/02 07:19:33;;;;;;;1.63;0.95;;;26.90;69.50;;;;;;5012743;28;20045;-77
2022/07/02 07:22:01;;;;;;;2.17;1.10;;;26.70;69.60;;;;;;5012942;28;20080;-78
2022/07/02 07:24:28;;;;;;;2.67;1.00;;;27.00;69.30;;;;;;5018582;28;20053;-77
2022/07/02 07:26:57;;;;;;;1.65;1.23;;;27.10;69.20;;;;;;5012616;28;20967;-77
2022/07/02 07:29:24;;;;;;;2.13;1.48;;;27.10;68.40;;;;;;5007061;28;20048;-77
2022/07/02 07:31:52;;;;;;;4.22;1.25;;;27.00;68.90;;;;;;5015919;28;20050;-76
2022/07/02 07:34:19;;;;;;;1.60;1.20;;;26.90;69.00;;;;;;5013658;28;20052;-77
2022/07/02 07:36:46;;;;;;;4.28;1.30;;;27.00;68.60;;;;;;5017371;28;20045;-78
2022/07/02 07:39:13;;;;;;;5.18;2.70;;;27.20;68.50;;;;;;5023816;28;22325;-78
2022/07/02 07:41:40;;;;;;;11.80;7.07;;;27.60;68.50;;;;;;5012004;28;20065;-77
2022/07/02 07:44:07;;;;;;;2.20;1.15;;;27.70;67.20;;;;;;5004012;28;20049;-77
2022/07/02 07:46:35;;;;;;;5.95;4.80;;;27.70;66.80;;;;;;5005729;28;20077;-77
2022/07/02 07:49:02;;;;;;;2.78;2.42;;;27.70;66.90;;;;;;5000441;28;20096;-77
2022/07/02 07:51:29;;;;;;;2.60;2.10;;;28.00;67.50;;;;;;4997373;28;20409;-77
2022/07/02 07:53:57;;;;;;;4.43;2.35;;;27.90;66.30;;;;;;5012244;28;20046;-77
2022/07/02 07:56:24;;;;;;;2.88;1.40;;;27.60;66.50;;;;;;5013630;28;20060;-77
2022/07/02 07:58:51;;;;;;;2.92;1.63;;;27.60;67.30;;;;;;5012833;28;20056;-77
2022/07/02 08:01:18;;;;;;;3.78;3.42;;;27.70;66.80;;;;;;5012383;28;20045;-76
2022/07/02 08:03:45;;;;;;;2.78;1.33;;;27.80;66.90;;;;;;5002454;28;20062;-77
2022/07/02 08:06:13;;;;;;;2.75;1.60;;;27.60;65.60;;;;;;5016486;28;20492;-77
2022/07/02 08:08:40;;;;;;;1.95;1.25;;;27.40;66.00;;;;;;5019295;28;20041;-78
2022/07/02 08:11:07;;;;;;;2.45;1.35;;;27.40;65.70;;;;;;5018801;28;20049;-77
2022/07/02 08:13:34;;;;;;;2.63;1.70;;;27.60;66.00;;;;;;5028485;28;20049;-78
2022/07/02 08:16:02;;;;;;;2.92;1.40;;;27.80;65.30;;;;;;5019249;28;20041;-78
2022/07/02 08:18:29;;;;;;;2.47;1.60;;;27.90;65.60;;;;;;5009206;28;20057;-77
2022/07/02 08:20:56;;;;;;;3.38;1.92;;;27.90;65.30;;;;;;4996643;28;20081;-78
2022/07/02 08:23:24;;;;;;;3.97;1.42;;;28.00;65.50;;;;;;5012820;28;20128;-76
2022/07/02 08:25:53;;;;;;;2.92;1.65;;;28.00;65.20;;;;;;5010604;28;20523;-76
2022/07/02 08:28:21;;;;;;;3.97;1.65;;;27.40;65.40;;;;;;5015267;28;20500;-76
2022/07/02 08:30:48;;;;;;;3.40;1.23;;;27.40;65.50;;;;;;4996366;28;20057;-76
2022/07/02 08:33:16;;;;;;;1.83;1.45;;;27.40;65.70;;;;;;5015641;28;20037;-76
2022/07/02 08:35:43;;;;;;;2.88;1.60;;;27.80;65.50;;;;;;5016625;28;20124;-76
2022/07/02 08:38:11;;;;;;;3.58;1.50;;;28.20;65.10;;;;;;5032426;28;20053;-77
2022/07/02 08:40:45;;;;;;;3.35;1.50;;;28.30;64.80;;;;;;5018710;28;20068;-76
2022/07/02 08:43:14;;;;;;;5.28;2.25;;;28.30;64.00;;;;;;5014182;28;20064;-76
2022/07/02 08:45:42;;;;;;;3.05;1.90;;;28.40;64.80;;;;;;5006982;28;20419;-76
2022/07/02 08:48:11;;;;;;;4.22;1.75;;;28.20;63.90;;;;;;5016530;28;20045;-77
2022/07/02 08:50:40;;;;;;;2.90;1.92;;;28.50;64.40;;;;;;4993015;28;20140;-76
2022/07/02 08:53:08;;;;;;;2.20;1.83;;;28.70;64.10;;;;;;5015089;28;20072;-76
2022/07/02 08:55:36;;;;;;;2.92;1.63;;;28.50;63.30;;;;;;5004923;28;20146;-76
2022/07/02 08:58:07;;;;;;;3.20;1.77;;;28.60;63.80;;;;;;5016145;28;20045;-76
2022/07/02 09:00:36;;;;;;;2.78;1.58;;;28.40;63.40;;;;;;5008982;28;20183;-76
2022/07/02 09:03:03;;;;;;;4.15;2.05;;;28.30;63.20;;;;;;4999591;28;22621;-76
2022/07/02 09:05:33;;;;;;;2.65;2.10;;;28.50;63.90;;;;;;5007110;28;20049;-76
2022/07/02 09:08:01;;;;;;;4.53;2.00;;;28.60;63.90;;;;;;5005662;28;20048;-76
2022/07/02 09:10:28;;;;;;;4.18;1.90;;;28.60;63.20;;;;;;5013151;28;20061;-76
2022/07/02 09:12:55;;;;;;;3.20;2.33;;;28.40;63.60;;;;;;4993361;28;20805;-76
2022/07/02 09:15:23;;;;;;;5.38;2.00;;;28.70;63.30;;;;;;4996993;28;20091;-75
2022/07/02 09:17:51;;;;;;;3.80;2.15;;;28.60;62.90;;;;;;5014247;28;20045;-76
2022/07/02 09:20:18;;;;;;;2.80;1.73;;;28.70;63.70;;;;;;5007437;28;20058;-76
2022/07/02 09:22:49;;;;;;;2.63;1.50;;;28.60;63.10;;;;;;4998627;28;20080;-77
2022/07/02 09:25:21;;;;;;;2.70;1.77;;;28.60;63.20;;;;;;5030854;28;20131;-77
2022/07/02 09:28:01;;;;;;;4.75;1.83;;;28.80;63.00;;;;;;4989622;28;20112;-76
2022/07/02 09:30:31;;;;;;;5.68;2.10;;;28.80;62.80;;;;;;5004181;28;20057;-76
2022/07/02 09:35:45;;;;;;;2.60;1.90;;;28.90;62.40;;;;;;5019587;28;20033;-76
2022/07/02 09:38:13;;;;;;;3.30;1.90;;;29.10;62.60;;;;;;5009303;28;20126;-76
2022/07/02 09:40:55;;;;;;;2.58;2.08;;;29.10;62.10;;;;;;5014475;28;20080;-76
2022/07/02 09:43:31;;;;;;;2.90;1.88;;;29.00;62.40;;;;;;5018326;28;20067;-77
2022/07/02 09:46:00;;;;;;;4.32;1.98;;;29.10;62.00;;;;;;5016554;28;20542;-78
2022/07/02 09:48:28;;;;;;;3.92;2.20;;;29.20;61.80;;;;;;5015174;28;20102;-76
2022/07/02 09:51:02;;;;;;;3.33;2.40;;;29.10;62.20;;;;;;5018315;28;20052;-77
2022/07/02 09:53:29;;;;;;;2.92;2.30;;;29.30;62.20;;;;;;5019404;28;20046;-76
2022/07/02 09:55:56;;;;;;;2.83;2.35;;;29.30;61.40;;;;;;5023811;28;20053;-77
2022/07/02 09:58:28;;;;;;;5.47;2.40;;;29.30;62.20;;;;;;5023223;28;20827;-76
2022/07/02 10:01:02;;;;;;;4.07;2.10;;;29.30;61.60;;;;;;5020452;28;21341;-77
2022/07/02 10:03:29;;;;;;;2.90;2.45;;;29.30;61.20;;;;;;5017664;28;20528;-77
2022/07/02 10:05:56;;;;;;;3.53;2.40;;;29.30;61.80;;;;;;5016390;28;22367;-77
2022/07/02 10:08:24;;;;;;;5.30;2.67;;;29.50;62.20;;;;;;5024337;28;20152;-77
2022/07/02 10:10:51;;;;;;;5.43;2.47;;;29.60;61.40;;;;;;5005210;28;20583;-76
2022/07/02 10:13:18;;;;;;;4.13;2.42;;;29.40;61.80;;;;;;5019869;28;20053;-76
2022/07/02 10:16:00;;;;;;;7.82;3.10;;;29.30;61.40;;;;;;5018480;28;20045;-76
2022/07/02 10:18:28;;;;;;;;;;;29.30;61.80;;;;;;5016349;28;20467;-77
2022/07/02 10:20:59;;;;;;;5.70;2.90;;;29.50;61.40;;;;;;5020996;28;19935;-76
2022/07/02 10:23:27;;;;;;;2.92;2.45;;;29.50;61.50;;;;;;4995177;28;20057;-76
2022/07/02 10:25:55;;;;;;;7.82;2.85;;;29.40;61.00;;;;;;5019982;28;20049;-77
2022/07/02 10:28:26;;;;;;;4.10;2.45;;;29.50;61.10;;;;;;5008270;28;20203;-77
2022/07/02 10:30:55;;;;;;;7.57;2.53;;;29.50;61.90;;;;;;5006473;28;20095;-77
2022/07/02 10:33:25;;;;;;;7.22;3.63;;;29.80;62.20;;;;;;5017656;28;20074;-77
2022/07/02 10:35:53;;;;;;;3.80;2.65;;;29.90;61.80;;;;;;5024184;28;20053;-76
2022/07/02 10:38:31;;;;;;;5.07;3.47;;;29.90;61.20;;;;;;5012775;28;20049;-75
2022/07/02 10:40:58;;;;;;;4.75;2.45;;;29.80;61.10;;;;;;5015666;28;20136;-77
2022/07/02 10:43:30;;;;;;;3.30;2.55;;;29.60;61.10;;;;;;4991383;28;20049;-77
2022/07/02 10:46:12;;;;;;;6.03;2.55;;;29.60;60.70;;;;;;5017842;28;20053;-76
2022/07/02 10:48:52;;;;;;;3.42;2.17;;;29.60;60.50;;;;;;5016434;28;20520;-77
2022/07/02 10:51:29;;;;;;;3.85;2.45;;;29.60;61.20;;;;;;5004365;28;20227;-77
2022/07/02 10:54:06;;;;;;;5.68;3.05;;;29.70;60.40;;;;;;5018112;28;20125;-76
2022/07/02 10:56:45;;;;;;;2.85;2.47;;;29.70;60.80;;;;;;5034486;28;20131;-76
2022/07/02 10:59:26;;;;;;;4.97;2.83;;;29.70;60.20;;;;;;5019730;28;20707;-76
2022/07/02 11:02:05;;;;;;;5.17;2.57;;;29.60;60.20;;;;;;4993840;28;21112;-76
2022/07/02 11:04:33;;;;;;;6.70;2.40;;;29.70;60.70;;;;;;5022579;28;20049;-76
2022/07/02 11:07:10;;;;;;;5.35;2.50;;;29.80;60.40;;;;;;4994730;28;20045;-76
2022/07/02 11:09:55;;;;;;;3.63;2.75;;;29.70;60.30;;;;;;5004048;28;20068;-75
2022/07/02 11:12:48;;;;;;;4.57;2.30;;;29.90;60.30;;;;;;5026959;28;20049;-76
2022/07/02 11:15:18;;;;;;;3.80;2.25;;;29.80;60.60;;;;;;5020626;28;22443;-76
2022/07/02 11:17:53;;;;;;;3.90;2.63;;;29.90;60.20;;;;;;5038567;28;20042;-75
2022/07/02 11:20:27;;;;;;;3.20;2.20;;;30.00;60.50;;;;;;5035617;28;20111;-76
2022/07/02 11:22:55;;;;;;;4.53;2.63;;;29.80;59.80;;;;;;5019472;28;20046;-76
2022/07/02 11:25:23;;;;;;;6.22;2.90;;;29.90;60.10;;;;;;5017654;28;20051;-77
2022/07/02 11:28:02;;;;;;;5.18;2.45;;;29.90;59.70;;;;;;5011494;28;20052;-76
2022/07/02 11:30:31;;;;;;;4.68;2.40;;;30.00;60.10;;;;;;4997388;28;22462;-77
2022/07/02 11:32:58;;;;;;;5.47;2.50;;;29.90;60.30;;;;;;5008083;28;20045;-75
2022/07/02 11:35:26;;;;;;;5.35;3.22;;;30.00;59.90;;;;;;5028673;28;20059;-78
2022/07/02 11:37:57;;;;;;;3.83;2.00;;;29.90;60.00;;;;;;5026179;28;20699;-78
2022/07/02 11:40:26;;;;;;;3.83;2.30;;;29.90;59.60;;;;;;4990662;28;20062;-78
2022/07/02 11:42:53;;;;;;;5.82;3.15;;;30.00;59.20;;;;;;5003729;28;21130;-77
2022/07/02 11:45:20;;;;;;;4.18;2.08;;;29.90;59.10;;;;;;5019482;28;20049;-77
2022/07/02 11:47:50;;;;;;;2.80;2.00;;;29.90;58.80;;;;;;5020065;28;20048;-78
2022/07/02 11:50:29;;;;;;;3.33;2.03;;;29.80;58.40;;;;;;5023025;28;20053;-77
2022/07/02 11:52:57;;;;;;;3.05;1.98;;;29.80;58.70;;;;;;5032999;28;20052;-77
2022/07/02 11:55:25;;;;;;;3.75;1.80;;;30.00;59.30;;;;;;5000278;28;20037;-78
2022/07/02 11:57:53;;;;;;;6.40;2.08;;;30.20;58.50;;;;;;5020057;28;20042;-76
2022/07/02 12:00:20;;;;;;;4.43;2.20;;;30.20;57.50;;;;;;5013315;28;20063;-77
2022/07/02 12:02:47;;;;;;;2.63;2.38;;;30.10;57.90;;;;;;5019827;28;20057;-77
2022/07/02 12:05:19;;;;;;;2.25;1.80;;;30.10;58.10;;;;;;5007648;28;20451;-77
2022/07/02 12:07:47;;;;;;;9.15;2.55;;;30.00;57.50;;;;;;4998936;28;21146;-76
2022/07/02 12:10:14;;;;;;;4.57;1.45;;;30.00;57.20;;;;;;5034844;28;22031;-77
2022/07/02 12:12:42;;;;;;;3.50;1.60;;;30.10;57.90;;;;;;4994341;28;20050;-76
2022/07/02 12:15:10;;;;;;;4.30;2.05;;;30.00;57.30;;;;;;5015791;28;20056;-76
2022/07/02 12:17:49;;;;;;;5.32;1.60;;;30.10;57.80;;;;;;4997211;28;20052;-75
2022/07/02 12:20:20;;;;;;;2.83;1.60;;;30.00;56.50;;;;;;5020262;28;20049;-76
2022/07/02 12:22:54;;;;;;;1.47;1.33;;;30.20;56.50;;;;;;4996065;28;20084;-75
2022/07/02 12:25:21;;;;;;;2.17;1.27;;;30.10;56.50;;;;;;5006570;28;20183;-76
2022/07/02 12:27:53;;;;;;;1.85;1.42;;;30.10;57.60;;;;;;5004173;28;20049;-76
2022/07/02 12:30:21;;;;;;;3.78;1.38;;;30.20;56.60;;;;;;5019430;28;20073;-76
2022/07/02 12:32:52;;;;;;;3.75;2.05;;;30.20;56.80;;;;;;4999279;28;20037;-76
2022/07/02 12:35:20;;;;;;;3.40;1.25;;;30.20;57.40;;;;;;5033235;28;20049;-76
2022/07/02 12:37:51;;;;;;;6.70;2.10;;;30.20;56.50;;;;;;5016223;28;20102;-75
2022/07/02 12:40:20;;;;;;;4.57;1.80;;;30.20;56.80;;;;;;4992239;28;20058;-76
2022/07/02 12:42:54;;;;;;;2.45;1.65;;;30.30;57.40;;;;;;5001585;28;20045;-76
2022/07/02 12:45:22;;;;;;;3.72;1.42;;;30.20;56.60;;;;;;5032800;28;20045;-76
2022/07/02 12:48:07;;;;;;;3.60;1.60;;;30.10;56.70;;;;;;5016122;28;20042;-76
2022/07/02 12:50:40;;;;;;;3.70;1.52;;;30.20;56.50;;;;;;5009042;28;20049;-77
2022/07/02 12:53:10;;;;;;;4.90;1.35;;;30.30;56.70;;;;;;5007648;28;20061;-77
2022/07/02 12:55:44;;;;;;;3.38;1.40;;;30.50;56.30;;;;;;5022156;28;20807;-75
2022/07/02 12:58:13;;;;;;;1.58;1.30;;;30.40;56.10;;;;;;5007301;28;20053;-76
2022/07/02 13:00:43;;;;;;;4.05;1.40;;;30.40;55.80;;;;;;5001511;28;20050;-75
2022/07/02 13:03:13;;;;;;;2.57;1.50;;;30.40;56.00;;;;;;5012576;28;20159;-75